createdAt,value
2018-06-15T00:00:04.076Z,19.14
2018-06-15T00:00:30.224Z,19.09
2018-06-15T00:00:56.363Z,19.09
2018-06-15T00:01:22.502Z,19.09
2018-06-15T00:01:48.668Z,19.12
2018-06-15T00:02:14.830Z,19.15
2018-06-15T00:02:41.003Z,19.22
2018-06-15T00:03:07.135Z,19.18
2018-06-15T00:03:33.296Z,19.08
2018-06-15T00:03:59.442Z,19.18
2018-06-15T00:04:25.593Z,19.19
2018-06-15T00:04:51.746Z,19.21
2018-06-15T00:05:17.888Z,19.07
2018-06-15T00:05:44.048Z,19.09
2018-06-15T00:06:10.194Z,19.22
2018-06-15T00:06:36.327Z,19.18
2018-06-15T00:07:02.495Z,19.21
2018-06-15T00:07:28.628Z,19.16
2018-06-15T00:07:54.800Z,19.19
2018-06-15T00:08:20.957Z,19.21
2018-06-15T00:08:47.106Z,19.16
2018-06-15T00:09:13.238Z,19.21
2018-06-15T00:09:39.377Z,19.22
2018-06-15T00:10:05.520Z,19.14
2018-06-15T00:10:31.679Z,19.16
2018-06-15T00:10:57.822Z,19.15
2018-06-15T00:11:23.964Z,19.04
2018-06-15T00:11:50.102Z,19.04
2018-06-15T00:12:16.237Z,19.12
2018-06-15T00:12:42.381Z,19.12
2018-06-15T00:13:08.530Z,19.07
2018-06-15T00:13:34.692Z,19.14
2018-06-15T00:14:00.828Z,19.08
2018-06-15T00:14:26.968Z,19.09
2018-06-15T00:14:53.113Z,19.08
2018-06-15T00:15:19.293Z,19.12
2018-06-15T00:15:45.431Z,19.09
2018-06-15T00:16:11.570Z,19.08
2018-06-15T00:16:37.742Z,19.14
2018-06-15T00:17:03.882Z,19.08
2018-06-15T00:17:30.028Z,19.11
2018-06-15T00:17:56.169Z,19.07
2018-06-15T00:18:22.307Z,19.04
2018-06-15T00:18:48.445Z,19.14
2018-06-15T00:19:14.607Z,19.08
2018-06-15T00:19:40.745Z,19.08
2018-06-15T00:20:06.902Z,19.09
2018-06-15T00:20:33.042Z,19.09
2018-06-15T00:20:59.186Z,19.12
2018-06-15T00:21:25.324Z,19.07
2018-06-15T00:21:51.465Z,19.09
2018-06-15T00:22:17.600Z,19.14
2018-06-15T00:22:43.737Z,19.16
2018-06-15T00:23:09.878Z,19.09
2018-06-15T00:23:36.015Z,19.12
2018-06-15T00:24:02.156Z,19.09
2018-06-15T00:24:28.296Z,19.07
2018-06-15T00:24:54.435Z,19.12
2018-06-15T00:25:20.569Z,19.04
2018-06-15T00:25:46.708Z,19.08
2018-06-15T00:26:12.874Z,19.08
2018-06-15T00:26:39.008Z,19.07
2018-06-15T00:27:05.147Z,19.08
2018-06-15T00:27:31.287Z,19.09
2018-06-15T00:27:57.459Z,19.14
2018-06-15T00:28:23.601Z,19.11
2018-06-15T00:28:49.738Z,19.08
2018-06-15T00:29:15.885Z,19.14
2018-06-15T00:29:42.047Z,19.08
2018-06-15T00:30:08.186Z,19.07
2018-06-15T00:30:34.331Z,19.12
2018-06-15T00:31:00.492Z,19.08
2018-06-15T00:31:26.639Z,19.08
2018-06-15T00:31:52.774Z,19.02
2018-06-15T00:32:18.921Z,19.04
2018-06-15T00:32:45.061Z,19.04
2018-06-15T00:33:11.200Z,19.07
2018-06-15T00:33:37.346Z,19.08
2018-06-15T00:34:03.483Z,19.12
2018-06-15T00:34:29.621Z,19.14
2018-06-15T00:34:55.762Z,19.09
2018-06-15T00:35:21.905Z,19.08
2018-06-15T00:35:48.047Z,19.11
2018-06-15T00:36:14.261Z,19.07
2018-06-15T00:36:40.339Z,19.07
2018-06-15T00:37:06.503Z,19.09
2018-06-15T00:37:32.635Z,19.12
2018-06-15T00:37:58.777Z,19.08
2018-06-15T00:38:24.911Z,19.12
2018-06-15T00:38:51.056Z,19.09
2018-06-15T00:39:17.196Z,19
2018-06-15T00:39:43.337Z,19.02
2018-06-15T00:40:09.471Z,19.12
2018-06-15T00:40:35.614Z,19.09
2018-06-15T00:41:01.773Z,19.11
2018-06-15T00:41:27.918Z,19.11
2018-06-15T00:41:54.065Z,19.11
2018-06-15T00:42:20.204Z,19.12
2018-06-15T00:42:46.343Z,19.08
2018-06-15T00:43:12.486Z,19.08
2018-06-15T00:43:38.627Z,19
2018-06-15T00:44:04.766Z,19.11
2018-06-15T00:44:30.900Z,19.09
2018-06-15T00:44:57.038Z,19.08
2018-06-15T00:45:23.175Z,19.09
2018-06-15T00:45:49.340Z,19.07
2018-06-15T00:46:15.510Z,19.08
2018-06-15T00:46:41.668Z,19.07
2018-06-15T00:47:07.811Z,19.07
2018-06-15T00:47:33.954Z,19.11
2018-06-15T00:48:00.097Z,19.09
2018-06-15T00:48:26.260Z,19.02
2018-06-15T00:48:52.496Z,18.93
2018-06-15T00:49:18.622Z,19
2018-06-15T00:49:44.759Z,19.07
2018-06-15T00:50:10.903Z,19.08
2018-06-15T00:50:37.113Z,19.02
2018-06-15T00:51:03.253Z,19.07
2018-06-15T00:51:29.398Z,19
2018-06-15T00:51:55.543Z,19.04
2018-06-15T00:52:21.685Z,19.08
2018-06-15T00:52:47.843Z,19
2018-06-15T00:53:13.983Z,19.04
2018-06-15T00:53:40.115Z,19.08
2018-06-15T00:54:06.254Z,19.07
2018-06-15T00:54:32.390Z,19.02
2018-06-15T00:54:58.556Z,19.02
2018-06-15T00:55:30.970Z,19.02
2018-06-15T00:55:57.945Z,19.04
2018-06-15T00:56:24.083Z,19.02
2018-06-15T00:56:50.219Z,19
2018-06-15T00:57:16.419Z,19.04
2018-06-15T00:57:42.552Z,19
2018-06-15T00:58:08.693Z,18.99
2018-06-15T00:58:34.839Z,19.02
2018-06-15T00:59:00.981Z,19
2018-06-15T00:59:27.124Z,19.02
2018-06-15T00:59:53.256Z,19.11
2018-06-15T01:00:19.391Z,19.11
2018-06-15T01:00:45.534Z,19.02
2018-06-15T01:01:11.666Z,18.98
2018-06-15T01:01:37.807Z,19.04
2018-06-15T01:02:03.950Z,19.07
2018-06-15T01:02:30.090Z,18.95
2018-06-15T01:02:56.246Z,18.98
2018-06-15T01:03:22.416Z,18.99
2018-06-15T01:03:48.555Z,18.99
2018-06-15T01:04:14.699Z,19.07
2018-06-15T01:04:40.829Z,18.98
2018-06-15T01:05:07.000Z,19.07
2018-06-15T01:05:33.171Z,19.02
2018-06-15T01:05:59.355Z,18.99
2018-06-15T01:06:25.512Z,19.07
2018-06-15T01:06:51.654Z,18.98
2018-06-15T01:07:17.802Z,18.99
2018-06-15T01:07:43.959Z,19
2018-06-15T01:08:10.123Z,19
2018-06-15T01:08:36.284Z,19
2018-06-15T01:09:02.450Z,19.04
2018-06-15T01:09:28.610Z,19.09
2018-06-15T01:09:54.748Z,19.07
2018-06-15T01:10:20.888Z,19.04
2018-06-15T01:10:47.051Z,19.07
2018-06-15T01:11:13.194Z,19
2018-06-15T01:11:39.329Z,19.04
2018-06-15T01:12:05.468Z,19
2018-06-15T01:12:31.605Z,19.08
2018-06-15T01:12:57.741Z,19.08
2018-06-15T01:13:23.883Z,19.11
2018-06-15T01:13:50.029Z,19.12
2018-06-15T01:14:16.167Z,19.09
2018-06-15T01:14:42.332Z,19.04
2018-06-15T01:15:08.471Z,19.09
2018-06-15T01:15:34.661Z,19.04
2018-06-15T01:16:00.799Z,19.09
2018-06-15T01:16:26.962Z,19.15
2018-06-15T01:16:53.094Z,19.09
2018-06-15T01:17:19.246Z,19.09
2018-06-15T01:17:45.378Z,19.08
2018-06-15T01:18:11.518Z,19.09
2018-06-15T01:18:37.656Z,19.14
2018-06-15T01:19:03.797Z,19.08
2018-06-15T01:19:29.933Z,19.08
2018-06-15T01:19:56.074Z,19.14
2018-06-15T01:20:22.214Z,19.07
2018-06-15T01:20:48.354Z,19.11
2018-06-15T01:21:14.499Z,19.11
2018-06-15T01:21:40.636Z,19.08
2018-06-15T01:22:06.772Z,19.04
2018-06-15T01:22:32.939Z,19.02
2018-06-15T01:22:59.076Z,19.02
2018-06-15T01:23:25.218Z,19.07
2018-06-15T01:23:51.360Z,19.02
2018-06-15T01:24:17.524Z,19.08
2018-06-15T01:24:43.684Z,19.09
2018-06-15T01:25:09.826Z,19
2018-06-15T01:25:36.018Z,18.99
2018-06-15T01:26:02.159Z,19.11
2018-06-15T01:26:28.293Z,19.07
2018-06-15T01:26:54.432Z,19.07
2018-06-15T01:27:20.574Z,19.09
2018-06-15T01:27:46.710Z,19.08
2018-06-15T01:28:12.854Z,18.99
2018-06-15T01:28:39.011Z,18.98
2018-06-15T01:29:05.154Z,19.04
2018-06-15T01:29:31.286Z,18.99
2018-06-15T01:29:57.506Z,18.98
2018-06-15T01:30:23.662Z,19.04
2018-06-15T01:30:49.832Z,19
2018-06-15T01:31:15.968Z,18.99
2018-06-15T01:31:42.105Z,19.04
2018-06-15T01:32:08.274Z,18.98
2018-06-15T01:32:34.421Z,18.88
2018-06-15T01:33:00.556Z,19.02
2018-06-15T01:33:26.688Z,19.02
2018-06-15T01:33:52.827Z,18.93
2018-06-15T01:34:18.975Z,19.02
2018-06-15T01:34:45.130Z,19.04
2018-06-15T01:35:11.268Z,19.04
2018-06-15T01:35:37.437Z,19.02
2018-06-15T01:36:03.578Z,18.98
2018-06-15T01:36:29.724Z,18.99
2018-06-15T01:36:55.892Z,18.98
2018-06-15T01:37:22.028Z,19.02
2018-06-15T01:37:48.169Z,18.99
2018-06-15T01:38:14.302Z,18.99
2018-06-15T01:38:40.443Z,18.84
2018-06-15T01:39:06.582Z,18.89
2018-06-15T01:39:32.723Z,18.89
2018-06-15T01:39:58.866Z,18.9
2018-06-15T01:40:25.006Z,18.98
2018-06-15T01:40:51.172Z,18.88
2018-06-15T01:41:17.334Z,18.93
2018-06-15T01:41:43.482Z,18.88
2018-06-15T01:42:09.619Z,18.99
2018-06-15T01:42:35.760Z,18.92
2018-06-15T01:43:01.921Z,19.02
2018-06-15T01:43:28.059Z,18.98
2018-06-15T01:43:54.194Z,18.84
2018-06-15T01:44:20.335Z,18.92
2018-06-15T01:44:46.519Z,18.99
2018-06-15T01:45:12.661Z,18.88
2018-06-15T01:45:38.794Z,19.02
2018-06-15T01:46:04.940Z,18.9
2018-06-15T01:46:31.079Z,19.07
2018-06-15T01:46:57.222Z,18.93
2018-06-15T01:47:23.365Z,18.99
2018-06-15T01:47:49.498Z,18.93
2018-06-15T01:48:15.640Z,18.88
2018-06-15T01:48:41.811Z,18.88
2018-06-15T01:49:07.944Z,18.9
2018-06-15T01:49:34.086Z,18.84
2018-06-15T01:50:00.220Z,18.88
2018-06-15T01:50:26.379Z,18.83
2018-06-15T01:50:52.520Z,18.83
2018-06-15T01:51:18.680Z,18.83
2018-06-15T01:51:44.846Z,18.84
2018-06-15T01:52:10.989Z,18.78
2018-06-15T01:52:37.124Z,18.81
2018-06-15T01:53:03.263Z,18.86
2018-06-15T01:53:29.403Z,18.78
2018-06-15T01:53:55.541Z,18.74
2018-06-15T01:54:21.681Z,18.81
2018-06-15T01:54:47.846Z,18.77
2018-06-15T01:55:14.008Z,18.71
2018-06-15T01:55:40.147Z,18.74
2018-06-15T01:56:06.278Z,18.74
2018-06-15T01:56:32.422Z,18.73
2018-06-15T01:56:58.559Z,18.77
2018-06-15T01:57:24.696Z,18.75
2018-06-15T01:57:50.842Z,18.75
2018-06-15T01:58:16.979Z,18.74
2018-06-15T01:58:43.111Z,18.73
2018-06-15T01:59:09.249Z,18.75
2018-06-15T01:59:35.385Z,18.73
2018-06-15T02:00:01.533Z,18.63
2018-06-15T02:00:27.663Z,18.71
2018-06-15T02:00:53.805Z,18.65
2018-06-15T02:01:20.091Z,18.66
2018-06-15T02:01:46.078Z,18.73
2018-06-15T02:02:12.214Z,18.7
2018-06-15T02:02:38.354Z,18.63
2018-06-15T02:03:04.491Z,18.75
2018-06-15T02:03:30.625Z,18.7
2018-06-15T02:03:56.790Z,18.66
2018-06-15T02:04:22.936Z,18.59
2018-06-15T02:04:49.078Z,18.66
2018-06-15T02:05:15.226Z,18.68
2018-06-15T02:05:41.365Z,18.6
2018-06-15T02:06:07.507Z,18.56
2018-06-15T02:06:33.643Z,18.7
2018-06-15T02:06:59.785Z,18.71
2018-06-15T02:07:25.949Z,18.68
2018-06-15T02:07:52.140Z,18.63
2018-06-15T02:08:18.258Z,18.62
2018-06-15T02:08:44.391Z,18.66
2018-06-15T02:09:10.558Z,18.65
2018-06-15T02:09:36.698Z,18.68
2018-06-15T02:10:02.841Z,18.68
2018-06-15T02:10:28.982Z,18.62
2018-06-15T02:10:55.148Z,18.65
2018-06-15T02:11:21.302Z,18.63
2018-06-15T02:11:47.445Z,18.59
2018-06-15T02:12:13.603Z,18.58
2018-06-15T02:12:39.767Z,18.56
2018-06-15T02:13:05.902Z,18.68
2018-06-15T02:13:32.101Z,18.65
2018-06-15T02:13:58.224Z,18.62
2018-06-15T02:14:24.353Z,18.62
2018-06-15T02:14:50.516Z,18.62
2018-06-15T02:15:16.658Z,18.52
2018-06-15T02:15:42.799Z,18.62
2018-06-15T02:16:08.934Z,18.55
2018-06-15T02:16:35.080Z,18.53
2018-06-15T02:17:01.219Z,18.53
2018-06-15T02:17:27.358Z,18.56
2018-06-15T02:17:53.498Z,18.53
2018-06-15T02:18:19.641Z,18.49
2018-06-15T02:18:45.779Z,18.52
2018-06-15T02:19:11.926Z,18.55
2018-06-15T02:19:38.057Z,18.56
2018-06-15T02:20:04.199Z,18.55
2018-06-15T02:20:30.331Z,18.55
2018-06-15T02:20:56.479Z,18.5
2018-06-15T02:21:22.616Z,18.52
2018-06-15T02:21:48.757Z,18.52
2018-06-15T02:22:14.909Z,18.49
2018-06-15T02:22:41.049Z,18.5
2018-06-15T02:23:07.185Z,18.47
2018-06-15T02:23:33.322Z,18.52
2018-06-15T02:23:59.458Z,18.55
2018-06-15T02:24:25.598Z,18.47
2018-06-15T02:24:51.742Z,18.53
2018-06-15T02:25:17.873Z,18.55
2018-06-15T02:25:44.016Z,18.5
2018-06-15T02:26:10.174Z,18.47
2018-06-15T02:26:36.308Z,18.47
2018-06-15T02:27:02.448Z,18.41
2018-06-15T02:27:28.608Z,18.47
2018-06-15T02:27:54.756Z,18.52
2018-06-15T02:28:20.886Z,18.38
2018-06-15T02:28:47.027Z,18.4
2018-06-15T02:29:13.166Z,18.5
2018-06-15T02:29:39.331Z,18.37
2018-06-15T02:30:05.467Z,18.44
2018-06-15T02:30:31.608Z,18.44
2018-06-15T02:30:57.772Z,18.35
2018-06-15T02:31:23.934Z,18.4
2018-06-15T02:31:50.133Z,18.38
2018-06-15T02:32:16.286Z,18.34
2018-06-15T02:32:42.476Z,18.35
2018-06-15T02:33:08.631Z,18.43
2018-06-15T02:33:34.768Z,18.34
2018-06-15T02:34:00.928Z,18.35
2018-06-15T02:34:27.070Z,18.25
2018-06-15T02:34:53.258Z,18.37
2018-06-15T02:35:19.421Z,18.33
2018-06-15T02:35:45.577Z,18.31
2018-06-15T02:36:11.819Z,18.29
2018-06-15T02:36:37.985Z,18.23
2018-06-15T02:37:04.132Z,18.38
2018-06-15T02:37:30.265Z,18.26
2018-06-15T02:37:56.423Z,18.28
2018-06-15T02:38:22.574Z,18.28
2018-06-15T02:38:48.757Z,18.28
2018-06-15T02:39:14.919Z,18.28
2018-06-15T02:39:41.077Z,18.31
2018-06-15T02:40:07.220Z,18.29
2018-06-15T02:40:33.381Z,18.23
2018-06-15T02:40:59.550Z,18.25
2018-06-15T02:41:25.705Z,18.31
2018-06-15T02:41:51.868Z,18.31
2018-06-15T02:42:18.009Z,18.31
2018-06-15T02:42:44.155Z,18.28
2018-06-15T02:43:10.376Z,18.23
2018-06-15T02:43:36.509Z,18.31
2018-06-15T02:44:02.699Z,18.23
2018-06-15T02:44:28.892Z,18.19
2018-06-15T02:44:55.058Z,18.25
2018-06-15T02:45:21.250Z,18.19
2018-06-15T02:45:47.363Z,18.22
2018-06-15T02:46:13.524Z,18.31
2018-06-15T02:46:39.685Z,18.29
2018-06-15T02:47:05.844Z,18.2
2018-06-15T02:47:31.983Z,18.26
2018-06-15T02:47:58.153Z,18.23
2018-06-15T02:48:24.343Z,18.07
2018-06-15T02:48:50.482Z,18.19
2018-06-15T02:49:16.663Z,18.13
2018-06-15T02:49:42.825Z,18.16
2018-06-15T02:50:08.959Z,18.15
2018-06-15T02:50:35.099Z,18.15
2018-06-15T02:51:01.242Z,18.1
2018-06-15T02:51:27.411Z,18.16
2018-06-15T02:51:53.574Z,18.15
2018-06-15T02:52:19.736Z,18.19
2018-06-15T02:52:45.877Z,18.15
2018-06-15T02:53:12.010Z,18.13
2018-06-15T02:53:38.144Z,18.08
2018-06-15T02:54:04.306Z,18.11
2018-06-15T02:54:30.474Z,18.16
2018-06-15T02:54:56.631Z,18.07
2018-06-15T02:55:22.777Z,18.1
2018-06-15T02:55:48.908Z,18.15
2018-06-15T02:56:15.073Z,18.07
2018-06-15T02:56:41.213Z,18.03
2018-06-15T02:57:07.402Z,18.13
2018-06-15T02:57:33.543Z,18.13
2018-06-15T02:57:59.686Z,18.05
2018-06-15T02:58:25.845Z,18.04
2018-06-15T02:58:52.021Z,18.01
2018-06-15T02:59:18.150Z,18.03
2018-06-15T02:59:44.308Z,18.01
2018-06-15T03:00:10.450Z,18.07
2018-06-15T03:00:36.586Z,18
2018-06-15T03:01:02.770Z,18.1
2018-06-15T03:01:28.907Z,18.04
2018-06-15T03:01:55.189Z,18.1
2018-06-15T03:02:21.485Z,18.07
2018-06-15T03:02:47.683Z,18.07
2018-06-15T03:03:13.970Z,18.08
2018-06-15T03:03:40.328Z,18.1
2018-06-15T03:04:06.520Z,18.08
2018-06-15T03:04:32.880Z,18.13
2018-06-15T03:04:59.071Z,18.16
2018-06-15T03:05:25.354Z,18.18
2018-06-15T03:05:51.797Z,18.07
2018-06-15T03:06:17.963Z,18.1
2018-06-15T03:06:44.100Z,18.16
2018-06-15T03:07:10.240Z,18.11
2018-06-15T03:07:36.420Z,18.08
2018-06-15T03:08:02.558Z,18.16
2018-06-15T03:08:28.750Z,18.19
2018-06-15T03:08:54.884Z,18.19
2018-06-15T03:09:21.021Z,18.16
2018-06-15T03:09:47.188Z,18.2
2018-06-15T03:10:13.345Z,18.2
2018-06-15T03:10:39.492Z,18.18
2018-06-15T03:11:05.629Z,18.18
2018-06-15T03:11:31.790Z,18.11
2018-06-15T03:11:57.933Z,18.18
2018-06-15T03:12:24.067Z,18.13
2018-06-15T03:12:50.206Z,18.19
2018-06-15T03:13:16.347Z,18.11
2018-06-15T03:13:42.500Z,18.19
2018-06-15T03:14:08.658Z,18.25
2018-06-15T03:14:34.803Z,18.2
2018-06-15T03:15:00.935Z,18.22
2018-06-15T03:15:27.129Z,18.22
2018-06-15T03:15:53.292Z,18.25
2018-06-15T03:16:19.504Z,18.29
2018-06-15T03:16:45.714Z,18.29
2018-06-15T03:17:11.857Z,18.28
2018-06-15T03:17:37.998Z,18.28
2018-06-15T03:18:04.142Z,18.28
2018-06-15T03:18:30.282Z,18.28
2018-06-15T03:18:56.420Z,18.28
2018-06-15T03:19:22.590Z,18.29
2018-06-15T03:19:48.726Z,18.25
2018-06-15T03:20:14.864Z,18.29
2018-06-15T03:20:41.001Z,18.23
2018-06-15T03:21:07.143Z,18.26
2018-06-15T03:21:33.283Z,18.26
2018-06-15T03:21:59.413Z,18.28
2018-06-15T03:22:25.554Z,18.25
2018-06-15T03:22:51.702Z,18.28
2018-06-15T03:23:17.836Z,18.28
2018-06-15T03:23:44.000Z,18.25
2018-06-15T03:24:10.143Z,18.28
2018-06-15T03:24:36.323Z,18.37
2018-06-15T03:25:02.523Z,18.29
2018-06-15T03:25:28.605Z,18.33
2018-06-15T03:25:54.742Z,18.28
2018-06-15T03:26:20.881Z,18.23
2018-06-15T03:26:47.037Z,18.38
2018-06-15T03:27:13.180Z,18.28
2018-06-15T03:27:39.319Z,18.33
2018-06-15T03:28:05.458Z,18.35
2018-06-15T03:28:31.611Z,18.34
2018-06-15T03:28:57.750Z,18.37
2018-06-15T03:29:23.894Z,18.33
2018-06-15T03:29:50.058Z,18.38
2018-06-15T03:30:16.239Z,18.33
2018-06-15T03:30:42.383Z,18.28
2018-06-15T03:31:08.542Z,18.26
2018-06-15T03:31:34.714Z,18.28
2018-06-15T03:32:00.913Z,18.33
2018-06-15T03:32:27.070Z,18.26
2018-06-15T03:32:53.204Z,18.22
2018-06-15T03:33:19.369Z,18.37
2018-06-15T03:33:45.515Z,18.33
2018-06-15T03:34:11.680Z,18.35
2018-06-15T03:34:37.834Z,18.33
2018-06-15T03:35:03.979Z,18.31
2018-06-15T03:35:30.120Z,18.34
2018-06-15T03:35:56.284Z,18.35
2018-06-15T03:36:22.444Z,18.34
2018-06-15T03:36:48.591Z,18.33
2018-06-15T03:37:14.731Z,18.31
2018-06-15T03:37:40.926Z,18.26
2018-06-15T03:38:07.035Z,18.34
2018-06-15T03:38:33.177Z,18.37
2018-06-15T03:38:59.335Z,18.35
2018-06-15T03:39:25.499Z,18.31
2018-06-15T03:39:51.639Z,18.31
2018-06-15T03:40:17.786Z,18.33
2018-06-15T03:40:43.930Z,18.28
2018-06-15T03:41:10.093Z,18.43
2018-06-15T03:41:36.239Z,18.43
2018-06-15T03:42:02.377Z,18.41
2018-06-15T03:42:28.514Z,18.41
2018-06-15T03:42:54.645Z,18.38
2018-06-15T03:43:20.783Z,18.45
2018-06-15T03:43:46.927Z,18.5
2018-06-15T03:44:13.068Z,18.38
2018-06-15T03:44:39.230Z,18.37
2018-06-15T03:45:05.369Z,18.43
2018-06-15T03:45:31.512Z,18.44
2018-06-15T03:45:57.677Z,18.4
2018-06-15T03:46:23.814Z,18.43
2018-06-15T03:46:49.975Z,18.53
2018-06-15T03:47:16.115Z,18.47
2018-06-15T03:47:42.255Z,18.47
2018-06-15T03:48:08.390Z,18.52
2018-06-15T03:48:34.521Z,18.49
2018-06-15T03:49:00.693Z,18.5
2018-06-15T03:49:26.832Z,18.52
2018-06-15T03:49:52.975Z,18.52
2018-06-15T03:50:19.108Z,18.5
2018-06-15T03:50:45.250Z,18.5
2018-06-15T03:51:11.387Z,18.52
2018-06-15T03:51:37.547Z,18.53
2018-06-15T03:52:03.688Z,18.53
2018-06-15T03:52:29.830Z,18.55
2018-06-15T03:52:55.989Z,18.52
2018-06-15T03:53:22.127Z,18.55
2018-06-15T03:53:48.266Z,18.49
2018-06-15T03:54:14.415Z,18.52
2018-06-15T03:54:40.555Z,18.52
2018-06-15T03:55:06.694Z,18.52
2018-06-15T03:55:32.842Z,18.53
2018-06-15T03:55:58.979Z,18.56
2018-06-15T03:56:25.117Z,18.56
2018-06-15T03:56:51.257Z,18.5
2018-06-15T03:57:17.425Z,18.53
2018-06-15T03:57:43.568Z,18.49
2018-06-15T03:58:09.703Z,18.55
2018-06-15T03:58:35.861Z,18.53
2018-06-15T03:59:01.996Z,18.52
2018-06-15T03:59:28.165Z,18.5
2018-06-15T03:59:54.313Z,18.52
2018-06-15T04:00:20.441Z,18.52
2018-06-15T04:00:46.578Z,18.5
2018-06-15T04:01:12.719Z,18.55
2018-06-15T04:01:38.873Z,18.62
2018-06-15T04:02:05.004Z,18.65
2018-06-15T04:02:31.145Z,18.65
2018-06-15T04:02:57.305Z,18.66
2018-06-15T04:03:23.441Z,18.62
2018-06-15T04:03:49.630Z,18.71
2018-06-15T04:04:15.766Z,18.7
2018-06-15T04:04:41.906Z,18.73
2018-06-15T04:05:08.048Z,18.75
2018-06-15T04:05:34.183Z,18.7
2018-06-15T04:06:00.329Z,18.7
2018-06-15T04:06:26.465Z,18.71
2018-06-15T04:06:52.602Z,18.7
2018-06-15T04:07:18.784Z,18.77
2018-06-15T04:07:44.980Z,18.74
2018-06-15T04:08:11.065Z,18.71
2018-06-15T04:08:37.189Z,18.77
2018-06-15T04:09:03.333Z,18.75
2018-06-15T04:09:29.478Z,18.78
2018-06-15T04:09:55.664Z,18.74
2018-06-15T04:10:21.827Z,18.75
2018-06-15T04:10:47.965Z,18.83
2018-06-15T04:11:14.102Z,18.78
2018-06-15T04:11:40.275Z,18.81
2018-06-15T04:12:06.420Z,18.8
2018-06-15T04:12:32.581Z,18.75
2018-06-15T04:12:58.743Z,18.78
2018-06-15T04:13:24.894Z,18.7
2018-06-15T04:13:51.064Z,18.7
2018-06-15T04:14:17.205Z,18.81
2018-06-15T04:14:43.341Z,18.71
2018-06-15T04:15:09.485Z,18.77
2018-06-15T04:15:35.649Z,18.73
2018-06-15T04:16:01.788Z,18.75
2018-06-15T04:16:27.925Z,18.81
2018-06-15T04:16:54.089Z,18.73
2018-06-15T04:17:20.229Z,18.74
2018-06-15T04:17:46.373Z,18.71
2018-06-15T04:18:12.510Z,18.7
2018-06-15T04:18:38.676Z,18.8
2018-06-15T04:19:04.814Z,18.81
2018-06-15T04:19:30.956Z,18.81
2018-06-15T04:19:57.121Z,18.8
2018-06-15T04:20:23.261Z,18.83
2018-06-15T04:20:49.404Z,18.8
2018-06-15T04:21:15.547Z,18.8
2018-06-15T04:21:41.711Z,18.83
2018-06-15T04:22:07.887Z,18.89
2018-06-15T04:22:34.027Z,18.83
2018-06-15T04:23:00.165Z,18.75
2018-06-15T04:23:26.332Z,18.8
2018-06-15T04:23:52.474Z,18.73
2018-06-15T04:24:18.607Z,18.74
2018-06-15T04:24:44.747Z,18.83
2018-06-15T04:25:10.888Z,18.81
2018-06-15T04:25:37.023Z,18.86
2018-06-15T04:26:03.168Z,18.8
2018-06-15T04:26:29.339Z,18.84
2018-06-15T04:26:55.502Z,18.84
2018-06-15T04:27:21.635Z,18.78
2018-06-15T04:27:47.794Z,18.8
2018-06-15T04:28:13.934Z,18.88
2018-06-15T04:28:40.080Z,18.77
2018-06-15T04:29:06.241Z,18.83
2018-06-15T04:29:32.370Z,18.9
2018-06-15T04:29:58.531Z,18.83
2018-06-15T04:30:24.666Z,18.83
2018-06-15T04:30:50.811Z,18.88
2018-06-15T04:31:16.945Z,18.86
2018-06-15T04:31:43.083Z,18.8
2018-06-15T04:32:09.217Z,18.83
2018-06-15T04:32:35.362Z,18.83
2018-06-15T04:33:01.505Z,18.88
2018-06-15T04:33:27.637Z,18.88
2018-06-15T04:33:53.797Z,18.9
2018-06-15T04:34:19.961Z,19.02
2018-06-15T04:34:46.095Z,19.04
2018-06-15T04:35:12.295Z,19
2018-06-15T04:35:38.428Z,19.11
2018-06-15T04:36:04.567Z,19
2018-06-15T04:36:30.708Z,19.02
2018-06-15T04:36:56.850Z,19
2018-06-15T04:37:23.085Z,19
2018-06-15T04:37:49.194Z,19.04
2018-06-15T04:38:15.337Z,19.08
2018-06-15T04:38:41.472Z,19.09
2018-06-15T04:39:07.656Z,19.08
2018-06-15T04:39:33.796Z,19.04
2018-06-15T04:39:59.961Z,19.14
2018-06-15T04:40:26.121Z,19.07
2018-06-15T04:40:52.267Z,19.11
2018-06-15T04:41:18.429Z,19.14
2018-06-15T04:41:44.573Z,19.07
2018-06-15T04:42:10.753Z,19.22
2018-06-15T04:42:36.889Z,19.09
2018-06-15T04:43:03.057Z,19.21
2018-06-15T04:43:29.197Z,19.16
2018-06-15T04:43:55.390Z,19.24
2018-06-15T04:44:21.494Z,19.16
2018-06-15T04:44:47.651Z,19.22
2018-06-15T04:45:13.795Z,19.24
2018-06-15T04:45:39.933Z,19.15
2018-06-15T04:46:06.093Z,19.12
2018-06-15T04:46:32.251Z,19.14
2018-06-15T04:46:58.373Z,19.29
2018-06-15T04:47:24.536Z,19.15
2018-06-15T04:47:50.668Z,19.24
2018-06-15T04:48:16.834Z,19.26
2018-06-15T04:48:43.026Z,19.26
2018-06-15T04:49:09.163Z,19.26
2018-06-15T04:49:35.334Z,19.27
2018-06-15T04:50:01.473Z,19.33
2018-06-15T04:50:27.613Z,19.36
2018-06-15T04:50:53.778Z,19.36
2018-06-15T04:51:19.923Z,19.36
2018-06-15T04:51:46.091Z,19.29
2018-06-15T04:52:12.233Z,19.31
2018-06-15T04:52:38.376Z,19.39
2018-06-15T04:53:04.515Z,19.39
2018-06-15T04:53:30.679Z,19.36
2018-06-15T04:53:56.818Z,19.45
2018-06-15T04:54:22.947Z,19.34
2018-06-15T04:54:49.087Z,19.4
2018-06-15T04:55:15.231Z,19.36
2018-06-15T04:55:41.401Z,19.4
2018-06-15T04:56:07.539Z,19.36
2018-06-15T04:56:33.704Z,19.4
2018-06-15T04:56:59.846Z,19.34
2018-06-15T04:57:25.983Z,19.45
2018-06-15T04:57:52.148Z,19.34
2018-06-15T04:58:18.286Z,19.41
2018-06-15T04:58:44.423Z,19.41
2018-06-15T04:59:10.576Z,19.48
2018-06-15T04:59:36.737Z,19.41
2018-06-15T05:00:02.872Z,19.51
2018-06-15T05:00:29.010Z,19.48
2018-06-15T05:00:55.155Z,19.52
2018-06-15T05:01:21.292Z,19.51
2018-06-15T05:01:47.459Z,19.52
2018-06-15T05:02:13.596Z,19.56
2018-06-15T05:02:39.761Z,19.56
2018-06-15T05:03:05.923Z,19.64
2018-06-15T05:03:32.061Z,19.62
2018-06-15T05:03:58.201Z,19.59
2018-06-15T05:04:24.339Z,19.58
2018-06-15T05:04:50.496Z,19.56
2018-06-15T05:05:16.646Z,19.59
2018-06-15T05:05:42.800Z,19.62
2018-06-15T05:06:08.949Z,19.56
2018-06-15T05:06:35.085Z,19.59
2018-06-15T05:07:01.253Z,19.63
2018-06-15T05:07:27.389Z,19.56
2018-06-15T05:07:53.533Z,19.59
2018-06-15T05:08:19.669Z,19.66
2018-06-15T05:08:45.849Z,19.63
2018-06-15T05:09:12.043Z,19.69
2018-06-15T05:09:38.122Z,19.67
2018-06-15T05:10:04.268Z,19.67
2018-06-15T05:10:30.424Z,19.79
2018-06-15T05:10:56.585Z,19.69
2018-06-15T05:11:22.725Z,19.73
2018-06-15T05:11:48.869Z,19.81
2018-06-15T05:12:15.027Z,19.76
2018-06-15T05:12:41.189Z,19.79
2018-06-15T05:13:07.332Z,19.84
2018-06-15T05:13:33.470Z,19.81
2018-06-15T05:13:59.604Z,19.85
2018-06-15T05:14:25.765Z,19.85
2018-06-15T05:14:51.907Z,19.77
2018-06-15T05:15:18.072Z,19.82
2018-06-15T05:15:44.216Z,19.79
2018-06-15T05:16:10.360Z,19.94
2018-06-15T05:16:36.521Z,19.91
2018-06-15T05:17:02.702Z,19.88
2018-06-15T05:17:28.847Z,19.82
2018-06-15T05:17:54.995Z,19.79
2018-06-15T05:18:21.163Z,19.81
2018-06-15T05:18:47.292Z,19.82
2018-06-15T05:19:13.441Z,19.86
2018-06-15T05:19:39.581Z,19.76
2018-06-15T05:20:05.726Z,19.89
2018-06-15T05:20:31.864Z,19.95
2018-06-15T05:20:58.007Z,19.95
2018-06-15T05:21:24.147Z,20.03
2018-06-15T05:21:50.333Z,19.94
2018-06-15T05:22:16.471Z,19.92
2018-06-15T05:22:42.640Z,19.92
2018-06-15T05:23:08.796Z,20.02
2018-06-15T05:23:34.936Z,20.09
2018-06-15T05:24:01.087Z,20.07
2018-06-15T05:24:27.230Z,20.02
2018-06-15T05:24:53.370Z,20.04
2018-06-15T05:25:19.534Z,20.04
2018-06-15T05:25:45.721Z,20.03
2018-06-15T05:26:11.846Z,19.95
2018-06-15T05:26:37.981Z,19.96
2018-06-15T05:27:04.124Z,19.92
2018-06-15T05:27:30.258Z,19.94
2018-06-15T05:27:56.395Z,19.92
2018-06-15T05:28:22.542Z,20.09
2018-06-15T05:28:48.686Z,20.1
2018-06-15T05:29:14.826Z,20.09
2018-06-15T05:29:40.986Z,20.18
2018-06-15T05:30:07.126Z,20.07
2018-06-15T05:30:33.290Z,20.13
2018-06-15T05:30:59.432Z,20.06
2018-06-15T05:31:25.597Z,20.11
2018-06-15T05:31:51.732Z,20.14
2018-06-15T05:32:17.905Z,20.1
2018-06-15T05:32:44.068Z,20.14
2018-06-15T05:33:10.199Z,20.21
2018-06-15T05:33:36.374Z,20.14
2018-06-15T05:34:02.515Z,20.24
2018-06-15T05:34:28.667Z,20.21
2018-06-15T05:34:54.807Z,20.21
2018-06-15T05:35:21.083Z,20.24
2018-06-15T05:35:47.129Z,20.21
2018-06-15T05:36:13.269Z,20.11
2018-06-15T05:36:39.435Z,20.18
2018-06-15T05:37:05.581Z,20.13
2018-06-15T05:37:31.728Z,20.09
2018-06-15T05:37:57.893Z,20.1
2018-06-15T05:38:24.044Z,20.03